sensor_id;sensor_type;location;lat;lon;timestamp;P1;durP1;ratioP1;P2;durP2;ratioP2
85342;SDS011;75760;31.390;34.904;2024-02-21T00:00:51;9.07;;;2.90;;
85342;SDS011;75760;31.390;34.904;2024-02-21T00:03:17;5.32;;;3.20;;
85342;SDS011;75760;31.390;34.904;2024-02-21T00:05:43;8.30;;;3.70;;
85342;SDS011;75760;31.390;34.904;2024-02-21T00:08:08;6.32;;;3.33;;
85342;SDS011;75760;31.390;34.904;2024-02-21T00:10:34;7.87;;;3.70;;
85342;SDS011;75760;31.390;34.904;2024-02-21T00:13:00;6.28;;;3.30;;
85342;SDS011;75760;31.390;34.904;2024-02-21T00:15:26;8.73;;;3.60;;
85342;SDS011;75760;31.390;34.904;2024-02-21T00:17:52;9.52;;;3.65;;
85342;SDS011;75760;31.390;34.904;2024-02-21T00:20:18;8.20;;;4.17;;
85342;SDS011;75760;31.390;34.904;2024-02-21T00:22:43;8.73;;;4.03;;
85342;SDS011;75760;31.390;34.904;2024-02-21T00:25:09;12.90;;;3.75;;
85342;SDS011;75760;31.390;34.904;2024-02-21T00:27:35;8.67;;;3.33;;
85342;SDS011;75760;31.390;34.904;2024-02-21T00:30:02;6.32;;;3.25;;
85342;SDS011;75760;31.390;34.904;2024-02-21T00:32:28;7.57;;;3.38;;
85342;SDS011;75760;31.390;34.904;2024-02-21T00:34:53;8.00;;;3.73;;
85342;SDS011;75760;31.390;34.904;2024-02-21T00:37:19;6.82;;;3.22;;
85342;SDS011;75760;31.390;34.904;2024-02-21T00:39:45;8.73;;;3.47;;
85342;SDS011;75760;31.390;34.904;2024-02-21T00:42:11;9.13;;;3.77;;
85342;SDS011;75760;31.390;34.904;2024-02-21T00:44:36;8.07;;;3.67;;
85342;SDS011;75760;31.390;34.904;2024-02-21T00:47:02;6.80;;;3.88;;
85342;SDS011;75760;31.390;34.904;2024-02-21T00:49:27;6.43;;;3.73;;
85342;SDS011;75760;31.390;34.904;2024-02-21T00:51:53;7.97;;;3.70;;
85342;SDS011;75760;31.390;34.904;2024-02-21T00:54:19;7.90;;;3.43;;
85342;SDS011;75760;31.390;34.904;2024-02-21T00:56:44;8.20;;;3.90;;
85342;SDS011;75760;31.390;34.904;2024-02-21T00:59:10;9.38;;;4.05;;
85342;SDS011;75760;31.390;34.904;2024-02-21T01:01:35;7.40;;;4.17;;
85342;SDS011;75760;31.390;34.904;2024-02-21T01:04:01;10.20;;;3.75;;
85342;SDS011;75760;31.390;34.904;2024-02-21T01:06:27;6.43;;;3.80;;
85342;SDS011;75760;31.390;34.904;2024-02-21T01:08:52;11.00;;;3.77;;
85342;SDS011;75760;31.390;34.904;2024-02-21T01:11:18;8.68;;;4.03;;
85342;SDS011;75760;31.390;34.904;2024-02-21T01:13:43;7.70;;;3.73;;
85342;SDS011;75760;31.390;34.904;2024-02-21T01:16:09;6.07;;;3.28;;
85342;SDS011;75760;31.390;34.904;2024-02-21T01:18:37;6.27;;;3.47;;
85342;SDS011;75760;31.390;34.904;2024-02-21T01:21:04;7.38;;;3.50;;
85342;SDS011;75760;31.390;34.904;2024-02-21T01:23:36;8.43;;;3.72;;
85342;SDS011;75760;31.390;34.904;2024-02-21T01:26:02;7.85;;;3.53;;
85342;SDS011;75760;31.390;34.904;2024-02-21T01:28:28;7.50;;;4.10;;
85342;SDS011;75760;31.390;34.904;2024-02-21T01:30:54;8.30;;;3.80;;
85342;SDS011;75760;31.390;34.904;2024-02-21T01:33:20;7.03;;;3.58;;
85342;SDS011;75760;31.390;34.904;2024-02-21T01:35:46;9.50;;;3.77;;
85342;SDS011;75760;31.390;34.904;2024-02-21T01:38:14;7.00;;;3.78;;
85342;SDS011;75760;31.390;34.904;2024-02-21T01:40:40;7.75;;;4.10;;
85342;SDS011;75760;31.390;34.904;2024-02-21T01:43:15;6.83;;;3.93;;
85342;SDS011;75760;31.390;34.904;2024-02-21T01:45:43;7.80;;;3.65;;
85342;SDS011;75760;31.390;34.904;2024-02-21T01:48:10;8.93;;;4.07;;
85342;SDS011;75760;31.390;34.904;2024-02-21T01:50:36;8.80;;;4.23;;
85342;SDS011;75760;31.390;34.904;2024-02-21T01:53:02;9.55;;;4.90;;
85342;SDS011;75760;31.390;34.904;2024-02-21T01:55:28;9.68;;;4.47;;
85342;SDS011;75760;31.390;34.904;2024-02-21T01:57:54;7.83;;;4.10;;
85342;SDS011;75760;31.390;34.904;2024-02-21T02:00:19;7.63;;;4.13;;
85342;SDS011;75760;31.390;34.904;2024-02-21T02:02:45;9.23;;;4.35;;
85342;SDS011;75760;31.390;34.904;2024-02-21T02:05:11;8.70;;;4.20;;
85342;SDS011;75760;31.390;34.904;2024-02-21T02:07:37;8.37;;;4.20;;
85342;SDS011;75760;31.390;34.904;2024-02-21T02:10:02;8.73;;;4.10;;
85342;SDS011;75760;31.390;34.904;2024-02-21T02:12:28;7.17;;;3.97;;
85342;SDS011;75760;31.390;34.904;2024-02-21T02:15:01;8.43;;;4.50;;
85342;SDS011;75760;31.390;34.904;2024-02-21T02:17:30;9.80;;;4.53;;
85342;SDS011;75760;31.390;34.904;2024-02-21T02:19:56;10.13;;;4.07;;
85342;SDS011;75760;31.390;34.904;2024-02-21T02:22:22;10.65;;;4.45;;
85342;SDS011;75760;31.390;34.904;2024-02-21T02:24:54;10.55;;;3.92;;
85342;SDS011;75760;31.390;34.904;2024-02-21T02:27:20;8.20;;;3.37;;
85342;SDS011;75760;31.390;34.904;2024-02-21T02:29:48;7.32;;;3.45;;
85342;SDS011;75760;31.390;34.904;2024-02-21T02:32:14;6.90;;;4.00;;
85342;SDS011;75760;31.390;34.904;2024-02-21T02:34:40;8.25;;;3.30;;
85342;SDS011;75760;31.390;34.904;2024-02-21T02:37:05;6.73;;;3.33;;
85342;SDS011;75760;31.390;34.904;2024-02-21T02:39:31;6.95;;;3.05;;
85342;SDS011;75760;31.390;34.904;2024-02-21T02:41:56;5.23;;;2.90;;
85342;SDS011;75760;31.390;34.904;2024-02-21T02:44:22;7.50;;;3.00;;
85342;SDS011;75760;31.390;34.904;2024-02-21T02:46:48;6.33;;;2.73;;
85342;SDS011;75760;31.390;34.904;2024-02-21T02:49:13;7.90;;;2.80;;
85342;SDS011;75760;31.390;34.904;2024-02-21T02:51:42;8.00;;;2.50;;
85342;SDS011;75760;31.390;34.904;2024-02-21T02:54:11;7.72;;;2.63;;
85342;SDS011;75760;31.390;34.904;2024-02-21T02:56:37;5.13;;;2.50;;
85342;SDS011;75760;31.390;34.904;2024-02-21T02:59:02;8.30;;;3.10;;
85342;SDS011;75760;31.390;34.904;2024-02-21T03:01:28;5.37;;;2.87;;
85342;SDS011;75760;31.390;34.904;2024-02-21T03:03:54;7.22;;;3.17;;
85342;SDS011;75760;31.390;34.904;2024-02-21T03:06:19;4.83;;;2.30;;
85342;SDS011;75760;31.390;34.904;2024-02-21T03:08:45;5.50;;;2.50;;
85342;SDS011;75760;31.390;34.904;2024-02-21T03:11:11;10.27;;;3.33;;
85342;SDS011;75760;31.390;34.904;2024-02-21T03:13:36;7.65;;;2.95;;
85342;SDS011;75760;31.390;34.904;2024-02-21T03:16:02;7.00;;;2.80;;
85342;SDS011;75760;31.390;34.904;2024-02-21T03:18:28;5.93;;;2.90;;
85342;SDS011;75760;31.390;34.904;2024-02-21T03:20:54;5.43;;;2.60;;
85342;SDS011;75760;31.390;34.904;2024-02-21T03:23:19;6.70;;;2.40;;
85342;SDS011;75760;31.390;34.904;2024-02-21T03:25:45;7.03;;;2.67;;
85342;SDS011;75760;31.390;34.904;2024-02-21T03:28:11;5.20;;;2.63;;
85342;SDS011;75760;31.390;34.904;2024-02-21T03:30:36;8.70;;;2.80;;
85342;SDS011;75760;31.390;34.904;2024-02-21T03:33:02;6.20;;;2.75;;
85342;SDS011;75760;31.390;34.904;2024-02-21T03:35:28;5.45;;;2.45;;
85342;SDS011;75760;31.390;34.904;2024-02-21T03:37:54;5.60;;;2.70;;
85342;SDS011;75760;31.390;34.904;2024-02-21T03:40:19;5.87;;;2.63;;
85342;SDS011;75760;31.390;34.904;2024-02-21T03:42:45;6.22;;;2.70;;
85342;SDS011;75760;31.390;34.904;2024-02-21T03:45:10;4.80;;;2.20;;
85342;SDS011;75760;31.390;34.904;2024-02-21T03:47:36;7.03;;;2.40;;
85342;SDS011;75760;31.390;34.904;2024-02-21T03:50:02;4.20;;;2.13;;
85342;SDS011;75760;31.390;34.904;2024-02-21T03:52:27;6.05;;;2.60;;
85342;SDS011;75760;31.390;34.904;2024-02-21T03:54:53;4.90;;;2.27;;
85342;SDS011;75760;31.390;34.904;2024-02-21T03:57:20;6.35;;;2.78;;
85342;SDS011;75760;31.390;34.904;2024-02-21T03:59:46;6.10;;;2.47;;
85342;SDS011;75760;31.390;34.904;2024-02-21T04:02:12;8.73;;;2.47;;
85342;SDS011;75760;31.390;34.904;2024-02-21T04:04:37;5.13;;;2.33;;
85342;SDS011;75760;31.390;34.904;2024-02-21T04:07:04;4.93;;;2.15;;
85342;SDS011;75760;31.390;34.904;2024-02-21T04:09:33;6.43;;;2.30;;
85342;SDS011;75760;31.390;34.904;2024-02-21T04:11:59;7.85;;;2.33;;
85342;SDS011;75760;31.390;34.904;2024-02-21T04:14:25;5.90;;;2.65;;
85342;SDS011;75760;31.390;34.904;2024-02-21T04:16:51;6.73;;;2.20;;
85342;SDS011;75760;31.390;34.904;2024-02-21T04:19:17;4.57;;;2.13;;
85342;SDS011;75760;31.390;34.904;2024-02-21T04:21:42;5.90;;;2.38;;
85342;SDS011;75760;31.390;34.904;2024-02-21T04:24:08;5.17;;;2.57;;
85342;SDS011;75760;31.390;34.904;2024-02-21T04:26:34;4.75;;;2.33;;
85342;SDS011;75760;31.390;34.904;2024-02-21T04:28:59;7.43;;;2.87;;
85342;SDS011;75760;31.390;34.904;2024-02-21T04:31:25;5.82;;;2.88;;
85342;SDS011;75760;31.390;34.904;2024-02-21T04:33:51;7.37;;;3.20;;
85342;SDS011;75760;31.390;34.904;2024-02-21T04:36:16;6.85;;;3.67;;
85342;SDS011;75760;31.390;34.904;2024-02-21T04:38:42;11.70;;;3.70;;
85342;SDS011;75760;31.390;34.904;2024-02-21T04:41:08;6.38;;;3.90;;
85342;SDS011;75760;31.390;34.904;2024-02-21T04:43:33;8.37;;;3.90;;
85342;SDS011;75760;31.390;34.904;2024-02-21T04:45:59;7.87;;;3.97;;
85342;SDS011;75760;31.390;34.904;2024-02-21T04:48:25;6.70;;;3.30;;
85342;SDS011;75760;31.390;34.904;2024-02-21T04:50:51;6.03;;;3.45;;
85342;SDS011;75760;31.390;34.904;2024-02-21T04:53:16;7.37;;;3.10;;
85342;SDS011;75760;31.390;34.904;2024-02-21T04:55:42;8.13;;;3.10;;
85342;SDS011;75760;31.390;34.904;2024-02-21T04:58:08;6.97;;;3.78;;
85342;SDS011;75760;31.390;34.904;2024-02-21T05:00:34;11.33;;;3.90;;
85342;SDS011;75760;31.390;34.904;2024-02-21T05:02:59;6.87;;;3.80;;
85342;SDS011;75760;31.390;34.904;2024-02-21T05:05:25;7.63;;;4.25;;
85342;SDS011;75760;31.390;34.904;2024-02-21T05:07:50;7.73;;;4.33;;
85342;SDS011;75760;31.390;34.904;2024-02-21T05:10:16;9.50;;;4.20;;
85342;SDS011;75760;31.390;34.904;2024-02-21T05:12:42;6.20;;;3.83;;
85342;SDS011;75760;31.390;34.904;2024-02-21T05:15:08;7.60;;;4.10;;
85342;SDS011;75760;31.390;34.904;2024-02-21T05:17:34;7.93;;;4.23;;
85342;SDS011;75760;31.390;34.904;2024-02-21T05:19:59;8.45;;;4.07;;
85342;SDS011;75760;31.390;34.904;2024-02-21T05:22:25;6.20;;;3.63;;
85342;SDS011;75760;31.390;34.904;2024-02-21T05:24:50;8.18;;;4.45;;
85342;SDS011;75760;31.390;34.904;2024-02-21T05:27:16;6.87;;;4.27;;
85342;SDS011;75760;31.390;34.904;2024-02-21T05:29:42;7.90;;;4.78;;
85342;SDS011;75760;31.390;34.904;2024-02-21T05:32:07;8.43;;;4.50;;
85342;SDS011;75760;31.390;34.904;2024-02-21T05:34:33;10.07;;;4.90;;
85342;SDS011;75760;31.390;34.904;2024-02-21T05:36:58;11.07;;;4.60;;
85342;SDS011;75760;31.390;34.904;2024-02-21T05:39:25;9.05;;;4.55;;
85342;SDS011;75760;31.390;34.904;2024-02-21T05:41:51;10.53;;;4.73;;
85342;SDS011;75760;31.390;34.904;2024-02-21T05:44:16;11.15;;;4.97;;
85342;SDS011;75760;31.390;34.904;2024-02-21T05:46:42;9.43;;;4.63;;
85342;SDS011;75760;31.390;34.904;2024-02-21T05:49:08;8.75;;;4.97;;
85342;SDS011;75760;31.390;34.904;2024-02-21T05:51:34;9.43;;;5.10;;
85342;SDS011;75760;31.390;34.904;2024-02-21T05:54:00;12.25;;;6.03;;
85342;SDS011;75760;31.390;34.904;2024-02-21T05:56:25;8.97;;;5.40;;
85342;SDS011;75760;31.390;34.904;2024-02-21T05:58:51;12.30;;;5.60;;
85342;SDS011;75760;31.390;34.904;2024-02-21T06:01:17;8.93;;;5.40;;
85342;SDS011;75760;31.390;34.904;2024-02-21T06:03:46;7.88;;;4.65;;
85342;SDS011;75760;31.390;34.904;2024-02-21T06:06:12;6.53;;;4.00;;
85342;SDS011;75760;31.390;34.904;2024-02-21T06:08:39;7.05;;;3.83;;
85342;SDS011;75760;31.390;34.904;2024-02-21T06:11:05;6.50;;;4.18;;
85342;SDS011;75760;31.390;34.904;2024-02-21T06:13:31;10.43;;;4.30;;
85342;SDS011;75760;31.390;34.904;2024-02-21T06:15:57;9.80;;;4.18;;
85342;SDS011;75760;31.390;34.904;2024-02-21T06:18:22;6.63;;;4.50;;
85342;SDS011;75760;31.390;34.904;2024-02-21T06:20:48;8.77;;;3.83;;
85342;SDS011;75760;31.390;34.904;2024-02-21T06:23:15;10.00;;;4.30;;
85342;SDS011;75760;31.390;34.904;2024-02-21T06:25:42;9.23;;;4.57;;
85342;SDS011;75760;31.390;34.904;2024-02-21T06:28:07;6.55;;;3.72;;
85342;SDS011;75760;31.390;34.904;2024-02-21T06:30:33;8.30;;;3.43;;
85342;SDS011;75760;31.390;34.904;2024-02-21T06:32:59;11.20;;;3.58;;
85342;SDS011;75760;31.390;34.904;2024-02-21T06:35:25;7.77;;;3.90;;
85342;SDS011;75760;31.390;34.904;2024-02-21T06:37:53;6.68;;;3.88;;
85342;SDS011;75760;31.390;34.904;2024-02-21T06:40:22;5.47;;;2.60;;
85342;SDS011;75760;31.390;34.904;2024-02-21T06:42:48;7.57;;;3.30;;
85342;SDS011;75760;31.390;34.904;2024-02-21T06:45:17;4.85;;;2.72;;
85342;SDS011;75760;31.390;34.904;2024-02-21T06:47:42;6.10;;;3.00;;
85342;SDS011;75760;31.390;34.904;2024-02-21T06:50:08;5.22;;;2.80;;
85342;SDS011;75760;31.390;34.904;2024-02-21T06:52:35;7.05;;;2.70;;
85342;SDS011;75760;31.390;34.904;2024-02-21T06:55:03;8.18;;;3.00;;
85342;SDS011;75760;31.390;34.904;2024-02-21T06:57:29;4.27;;;2.60;;
85342;SDS011;75760;31.390;34.904;2024-02-21T06:59:55;4.32;;;2.47;;
85342;SDS011;75760;31.390;34.904;2024-02-21T07:02:20;5.00;;;2.40;;
85342;SDS011;75760;31.390;34.904;2024-02-21T07:04:46;6.50;;;2.58;;
85342;SDS011;75760;31.390;34.904;2024-02-21T07:07:12;5.80;;;3.10;;
85342;SDS011;75760;31.390;34.904;2024-02-21T07:09:38;5.33;;;2.50;;
85342;SDS011;75760;31.390;34.904;2024-02-21T07:12:04;5.37;;;2.73;;
85342;SDS011;75760;31.390;34.904;2024-02-21T07:14:30;6.18;;;2.83;;
85342;SDS011;75760;31.390;34.904;2024-02-21T07:16:57;5.35;;;2.78;;
85342;SDS011;75760;31.390;34.904;2024-02-21T07:19:22;7.17;;;3.20;;
85342;SDS011;75760;31.390;34.904;2024-02-21T07:21:48;9.20;;;3.00;;
85342;SDS011;75760;31.390;34.904;2024-02-21T07:24:14;6.73;;;2.43;;
85342;SDS011;75760;31.390;34.904;2024-02-21T07:26:43;7.00;;;2.60;;
85342;SDS011;75760;31.390;34.904;2024-02-21T07:29:09;5.97;;;2.60;;
85342;SDS011;75760;31.390;34.904;2024-02-21T07:31:41;6.17;;;2.27;;
85342;SDS011;75760;31.390;34.904;2024-02-21T07:34:08;5.22;;;2.42;;
85342;SDS011;75760;31.390;34.904;2024-02-21T07:36:33;10.85;;;2.53;;
85342;SDS011;75760;31.390;34.904;2024-02-21T07:38:59;27.17;;;3.40;;
85342;SDS011;75760;31.390;34.904;2024-02-21T07:41:25;6.15;;;2.50;;
85342;SDS011;75760;31.390;34.904;2024-02-21T07:43:51;4.15;;;2.08;;
85342;SDS011;75760;31.390;34.904;2024-02-21T07:46:17;6.13;;;2.30;;
85342;SDS011;75760;31.390;34.904;2024-02-21T07:48:47;6.55;;;2.63;;
85342;SDS011;75760;31.390;34.904;2024-02-21T07:51:13;4.75;;;2.45;;
85342;SDS011;75760;31.390;34.904;2024-02-21T07:53:39;6.10;;;2.50;;
85342;SDS011;75760;31.390;34.904;2024-02-21T07:56:10;7.97;;;2.20;;
85342;SDS011;75760;31.390;34.904;2024-02-21T07:58:36;3.75;;;2.38;;
85342;SDS011;75760;31.390;34.904;2024-02-21T08:01:01;6.88;;;2.70;;
85342;SDS011;75760;31.390;34.904;2024-02-21T08:03:27;6.73;;;2.30;;
85342;SDS011;75760;31.390;34.904;2024-02-21T08:05:53;4.63;;;2.10;;
85342;SDS011;75760;31.390;34.904;2024-02-21T08:08:18;4.85;;;2.30;;
85342;SDS011;75760;31.390;34.904;2024-02-21T08:10:46;3.70;;;2.30;;
85342;SDS011;75760;31.390;34.904;2024-02-21T08:13:12;6.73;;;2.33;;
85342;SDS011;75760;31.390;34.904;2024-02-21T08:15:37;4.80;;;2.50;;
85342;SDS011;75760;31.390;34.904;2024-02-21T08:18:05;8.43;;;2.75;;
85342;SDS011;75760;31.390;34.904;2024-02-21T08:20:30;5.30;;;2.60;;
85342;SDS011;75760;31.390;34.904;2024-02-21T08:22:56;9.40;;;2.90;;
85342;SDS011;75760;31.390;34.904;2024-02-21T08:25:22;7.60;;;3.23;;
85342;SDS011;75760;31.390;34.904;2024-02-21T08:27:47;6.40;;;3.17;;
85342;SDS011;75760;31.390;34.904;2024-02-21T08:30:13;8.00;;;2.85;;
85342;SDS011;75760;31.390;34.904;2024-02-21T08:32:39;4.97;;;2.67;;
85342;SDS011;75760;31.390;34.904;2024-02-21T08:35:04;7.10;;;2.70;;
85342;SDS011;75760;31.390;34.904;2024-02-21T08:37:31;5.78;;;2.78;;
85342;SDS011;75760;31.390;34.904;2024-02-21T08:39:56;7.23;;;2.90;;
85342;SDS011;75760;31.390;34.904;2024-02-21T08:42:22;6.80;;;2.97;;
85342;SDS011;75760;31.390;34.904;2024-02-21T08:44:48;5.20;;;3.30;;
85342;SDS011;75760;31.390;34.904;2024-02-21T08:47:14;7.40;;;3.45;;
85342;SDS011;75760;31.390;34.904;2024-02-21T08:49:40;6.10;;;2.80;;
85342;SDS011;75760;31.390;34.904;2024-02-21T08:52:06;5.00;;;2.90;;
85342;SDS011;75760;31.390;34.904;2024-02-21T08:54:31;5.15;;;3.17;;
85342;SDS011;75760;31.390;34.904;2024-02-21T08:57:00;5.82;;;3.03;;
85342;SDS011;75760;31.390;34.904;2024-02-21T08:59:26;6.00;;;3.60;;
85342;SDS011;75760;31.390;34.904;2024-02-21T09:01:51;5.85;;;2.92;;
85342;SDS011;75760;31.390;34.904;2024-02-21T09:04:20;5.33;;;3.00;;
85342;SDS011;75760;31.390;34.904;2024-02-21T09:06:45;6.57;;;2.90;;
85342;SDS011;75760;31.390;34.904;2024-02-21T09:09:11;5.40;;;2.87;;
85342;SDS011;75760;31.390;34.904;2024-02-21T09:11:37;5.40;;;2.97;;
85342;SDS011;75760;31.390;34.904;2024-02-21T09:14:03;4.63;;;3.05;;
85342;SDS011;75760;31.390;34.904;2024-02-21T09:16:30;5.07;;;2.47;;
85342;SDS011;75760;31.390;34.904;2024-02-21T09:18:59;5.15;;;3.10;;
85342;SDS011;75760;31.390;34.904;2024-02-21T09:21:25;5.85;;;2.63;;
85342;SDS011;75760;31.390;34.904;2024-02-21T09:23:51;4.77;;;2.40;;
85342;SDS011;75760;31.390;34.904;2024-02-21T09:26:16;5.25;;;2.50;;
85342;SDS011;75760;31.390;34.904;2024-02-21T09:28:42;4.50;;;2.60;;
85342;SDS011;75760;31.390;34.904;2024-02-21T09:31:11;6.10;;;3.13;;
85342;SDS011;75760;31.390;34.904;2024-02-21T09:33:37;6.60;;;2.97;;
85342;SDS011;75760;31.390;34.904;2024-02-21T09:36:03;6.10;;;2.80;;
85342;SDS011;75760;31.390;34.904;2024-02-21T09:38:31;6.07;;;3.00;;
85342;SDS011;75760;31.390;34.904;2024-02-21T09:41:00;5.70;;;2.92;;
85342;SDS011;75760;31.390;34.904;2024-02-21T09:43:36;5.00;;;2.80;;
85342;SDS011;75760;31.390;34.904;2024-02-21T09:46:05;5.78;;;3.20;;
85342;SDS011;75760;31.390;34.904;2024-02-21T09:48:54;7.40;;;3.05;;
85342;SDS011;75760;31.390;34.904;2024-02-21T09:51:20;5.55;;;2.80;;
85342;SDS011;75760;31.390;34.904;2024-02-21T09:53:46;5.65;;;3.15;;
85342;SDS011;75760;31.390;34.904;2024-02-21T09:56:13;4.70;;;2.70;;
85342;SDS011;75760;31.390;34.904;2024-02-21T09:58:39;6.63;;;3.00;;
85342;SDS011;75760;31.390;34.904;2024-02-21T10:01:06;7.30;;;3.47;;
85342;SDS011;75760;31.390;34.904;2024-02-21T10:03:32;4.90;;;2.80;;
85342;SDS011;75760;31.390;34.904;2024-02-21T10:05:58;5.43;;;3.03;;
85342;SDS011;75760;31.390;34.904;2024-02-21T10:08:26;7.32;;;3.15;;
85342;SDS011;75760;31.390;34.904;2024-02-21T10:10:52;7.22;;;3.20;;
85342;SDS011;75760;31.390;34.904;2024-02-21T10:13:25;7.23;;;3.00;;
85342;SDS011;75760;31.390;34.904;2024-02-21T10:16:01;7.90;;;3.60;;
85342;SDS011;75760;31.390;34.904;2024-02-21T10:18:28;9.43;;;3.78;;
85342;SDS011;75760;31.390;34.904;2024-02-21T10:21:03;7.10;;;3.58;;
85342;SDS011;75760;31.390;34.904;2024-02-21T10:23:46;8.57;;;3.20;;
85342;SDS011;75760;31.390;34.904;2024-02-21T10:26:13;6.28;;;3.25;;
85342;SDS011;75760;31.390;34.904;2024-02-21T10:28:39;8.13;;;4.35;;
85342;SDS011;75760;31.390;34.904;2024-02-21T10:31:10;7.75;;;3.90;;
85342;SDS011;75760;31.390;34.904;2024-02-21T10:33:37;11.48;;;4.00;;
85342;SDS011;75760;31.390;34.904;2024-02-21T10:36:08;7.37;;;3.87;;
85342;SDS011;75760;31.390;34.904;2024-02-21T10:38:38;8.05;;;3.92;;
85342;SDS011;75760;31.390;34.904;2024-02-21T10:41:04;7.40;;;4.00;;
85342;SDS011;75760;31.390;34.904;2024-02-21T10:43:38;11.68;;;3.70;;
85342;SDS011;75760;31.390;34.904;2024-02-21T10:46:07;10.18;;;3.83;;
85342;SDS011;75760;31.390;34.904;2024-02-21T10:48:41;7.10;;;3.90;;
85342;SDS011;75760;31.390;34.904;2024-02-21T10:56:16;12.10;;;5.20;;
85342;SDS011;75760;31.390;34.904;2024-02-21T10:58:50;10.25;;;4.55;;
85342;SDS011;75760;31.390;34.904;2024-02-21T11:01:17;7.63;;;4.00;;
85342;SDS011;75760;31.390;34.904;2024-02-21T11:03:44;6.97;;;4.00;;
85342;SDS011;75760;31.390;34.904;2024-02-21T11:06:12;10.25;;;4.15;;
85342;SDS011;75760;31.390;34.904;2024-02-21T11:08:40;7.80;;;4.43;;
85342;SDS011;75760;31.390;34.904;2024-02-21T11:11:05;10.50;;;4.40;;
85342;SDS011;75760;31.390;34.904;2024-02-21T11:13:32;9.80;;;4.23;;
85342;SDS011;75760;31.390;34.904;2024-02-21T11:16:10;11.45;;;4.68;;
85342;SDS011;75760;31.390;34.904;2024-02-21T11:18:37;9.82;;;4.70;;
85342;SDS011;75760;31.390;34.904;2024-02-21T11:21:03;7.40;;;4.03;;
85342;SDS011;75760;31.390;34.904;2024-02-21T11:23:31;8.27;;;3.88;;
85342;SDS011;75760;31.390;34.904;2024-02-21T11:26:07;11.10;;;4.47;;
85342;SDS011;75760;31.390;34.904;2024-02-21T11:28:44;12.82;;;3.58;;
85342;SDS011;75760;31.390;34.904;2024-02-21T11:31:13;9.52;;;4.40;;
85342;SDS011;75760;31.390;34.904;2024-02-21T11:33:40;8.82;;;4.15;;
85342;SDS011;75760;31.390;34.904;2024-02-21T11:36:09;8.18;;;4.20;;
85342;SDS011;75760;31.390;34.904;2024-02-21T11:38:35;10.37;;;4.60;;
85342;SDS011;75760;31.390;34.904;2024-02-21T11:41:00;10.38;;;5.10;;
85342;SDS011;75760;31.390;34.904;2024-02-21T11:43:26;10.40;;;4.22;;
85342;SDS011;75760;31.390;34.904;2024-02-21T11:45:59;10.37;;;5.53;;
85342;SDS011;75760;31.390;34.904;2024-02-21T11:48:29;9.40;;;4.53;;
85342;SDS011;75760;31.390;34.904;2024-02-21T11:50:55;10.02;;;4.53;;
85342;SDS011;75760;31.390;34.904;2024-02-21T11:53:21;7.75;;;4.55;;
85342;SDS011;75760;31.390;34.904;2024-02-21T11:55:47;11.47;;;4.20;;
85342;SDS011;75760;31.390;34.904;2024-02-21T11:58:13;7.40;;;4.43;;
85342;SDS011;75760;31.390;34.904;2024-02-21T12:00:38;9.57;;;4.60;;
85342;SDS011;75760;31.390;34.904;2024-02-21T12:03:05;10.18;;;4.40;;
85342;SDS011;75760;31.390;34.904;2024-02-21T12:05:31;8.68;;;4.57;;
85342;SDS011;75760;31.390;34.904;2024-02-21T12:07:57;9.23;;;4.83;;
85342;SDS011;75760;31.390;34.904;2024-02-21T12:10:23;9.93;;;4.10;;
85342;SDS011;75760;31.390;34.904;2024-02-21T12:12:49;7.65;;;3.97;;
85342;SDS011;75760;31.390;34.904;2024-02-21T12:15:17;11.77;;;4.53;;
85342;SDS011;75760;31.390;34.904;2024-02-21T12:17:44;7.03;;;3.80;;
85342;SDS011;75760;31.390;34.904;2024-02-21T12:20:10;11.77;;;5.57;;
85342;SDS011;75760;31.390;34.904;2024-02-21T12:22:39;10.07;;;4.68;;
85342;SDS011;75760;31.390;34.904;2024-02-21T12:27:45;11.70;;;5.00;;
85342;SDS011;75760;31.390;34.904;2024-02-21T12:30:11;12.23;;;5.60;;
85342;SDS011;75760;31.390;34.904;2024-02-21T12:32:37;12.95;;;4.93;;
85342;SDS011;75760;31.390;34.904;2024-02-21T12:35:03;13.75;;;5.15;;
85342;SDS011;75760;31.390;34.904;2024-02-21T12:37:29;9.23;;;5.10;;
85342;SDS011;75760;31.390;34.904;2024-02-21T12:39:54;12.88;;;5.13;;
85342;SDS011;75760;31.390;34.904;2024-02-21T12:42:20;7.97;;;4.80;;
85342;SDS011;75760;31.390;34.904;2024-02-21T12:44:46;10.82;;;5.45;;
85342;SDS011;75760;31.390;34.904;2024-02-21T12:47:11;11.47;;;5.20;;
85342;SDS011;75760;31.390;34.904;2024-02-21T12:49:37;11.43;;;5.53;;
85342;SDS011;75760;31.390;34.904;2024-02-21T12:52:03;11.40;;;5.00;;
85342;SDS011;75760;31.390;34.904;2024-02-21T12:54:29;11.80;;;4.82;;
85342;SDS011;75760;31.390;34.904;2024-02-21T12:56:56;11.98;;;4.60;;
85342;SDS011;75760;31.390;34.904;2024-02-21T12:59:21;14.32;;;6.05;;
85342;SDS011;75760;31.390;34.904;2024-02-21T13:01:48;7.75;;;4.68;;
85342;SDS011;75760;31.390;34.904;2024-02-21T13:04:13;10.70;;;4.60;;
85342;SDS011;75760;31.390;34.904;2024-02-21T13:06:39;10.17;;;5.00;;
85342;SDS011;75760;31.390;34.904;2024-02-21T13:09:04;10.32;;;5.38;;
85342;SDS011;75760;31.390;34.904;2024-02-21T13:11:34;13.60;;;4.80;;
85342;SDS011;75760;31.390;34.904;2024-02-21T13:13:59;9.80;;;4.83;;
85342;SDS011;75760;31.390;34.904;2024-02-21T13:16:25;10.32;;;4.65;;
85342;SDS011;75760;31.390;34.904;2024-02-21T13:18:54;8.48;;;4.75;;
85342;SDS011;75760;31.390;34.904;2024-02-21T13:21:19;9.53;;;4.70;;
85342;SDS011;75760;31.390;34.904;2024-02-21T13:23:45;9.02;;;4.57;;
85342;SDS011;75760;31.390;34.904;2024-02-21T13:26:11;10.10;;;4.63;;
85342;SDS011;75760;31.390;34.904;2024-02-21T13:28:37;11.88;;;5.07;;
85342;SDS011;75760;31.390;34.904;2024-02-21T13:31:03;12.50;;;4.57;;
85342;SDS011;75760;31.390;34.904;2024-02-21T13:33:29;8.10;;;4.47;;
85342;SDS011;75760;31.390;34.904;2024-02-21T13:35:55;10.98;;;4.55;;
85342;SDS011;75760;31.390;34.904;2024-02-21T13:38:20;9.30;;;4.63;;
85342;SDS011;75760;31.390;34.904;2024-02-21T13:40:46;10.95;;;4.20;;
85342;SDS011;75760;31.390;34.904;2024-02-21T13:43:12;11.53;;;4.83;;
85342;SDS011;75760;31.390;34.904;2024-02-21T13:45:38;9.93;;;4.32;;
85342;SDS011;75760;31.390;34.904;2024-02-21T13:48:06;12.93;;;4.53;;
85342;SDS011;75760;31.390;34.904;2024-02-21T13:50:35;8.43;;;4.72;;
85342;SDS011;75760;31.390;34.904;2024-02-21T13:53:07;10.50;;;5.30;;
85342;SDS011;75760;31.390;34.904;2024-02-21T13:55:35;11.50;;;6.03;;
85342;SDS011;75760;31.390;34.904;2024-02-21T13:58:00;10.85;;;5.38;;
85342;SDS011;75760;31.390;34.904;2024-02-21T14:00:26;12.10;;;5.13;;
85342;SDS011;75760;31.390;34.904;2024-02-21T14:02:52;12.05;;;5.60;;
85342;SDS011;75760;31.390;34.904;2024-02-21T14:05:19;16.20;;;5.97;;
85342;SDS011;75760;31.390;34.904;2024-02-21T14:07:45;15.50;;;5.40;;
85342;SDS011;75760;31.390;34.904;2024-02-21T14:10:10;9.90;;;5.25;;
85342;SDS011;75760;31.390;34.904;2024-02-21T14:12:36;11.20;;;5.37;;
85342;SDS011;75760;31.390;34.904;2024-02-21T14:15:03;9.65;;;5.40;;
85342;SDS011;75760;31.390;34.904;2024-02-21T14:17:30;12.68;;;5.40;;
85342;SDS011;75760;31.390;34.904;2024-02-21T14:19:56;9.27;;;5.50;;
85342;SDS011;75760;31.390;34.904;2024-02-21T14:22:21;10.00;;;4.87;;
85342;SDS011;75760;31.390;34.904;2024-02-21T14:24:47;15.95;;;5.55;;
85342;SDS011;75760;31.390;34.904;2024-02-21T14:27:14;16.70;;;4.93;;
85342;SDS011;75760;31.390;34.904;2024-02-21T14:29:39;18.55;;;4.65;;
85342;SDS011;75760;31.390;34.904;2024-02-21T14:32:05;12.00;;;5.73;;
85342;SDS011;75760;31.390;34.904;2024-02-21T14:34:32;14.93;;;5.90;;